Time;durP1;ratioP1;P1;durP2;ratioP2;P2;SDS_P1;SDS_P2;PMS_P1;PMS_P2;Temp;Humidity;BMP_temperature;BMP_pressure;BME280_temperature;BME280_humidity;BME280_pressure;Samples;Min_cycle;Max_cycle;Signal;HPM_P1;HPM_P2
2021/09/22 00:02:11;;;;;;;0.10;0.10;;;;;;;;;;5076115;28;20032;-92
2021/09/22 00:04:37;;;;;;;0.10;0.10;;;;;;;;;;5076337;28;20040;-93
2021/09/22 00:07:03;;;;;;;0.10;0.10;;;;;;;;;;5059696;28;20132;-94
2021/09/22 00:09:29;;;;;;;0.10;0.10;;;;;;;;;;5059385;28;20089;-92
2021/09/22 00:11:55;;;;;;;0.10;0.10;;;;;;;;;;5059299;28;20032;-92
2021/09/22 00:14:21;;;;;;;0.10;0.10;;;;;;;;;;5059199;28;20036;-92
2021/09/22 00:16:47;;;;;;;0.10;0.10;;;;;;;;;;5076055;28;20038;-92
2021/09/22 00:19:13;;;;;;;0.10;0.10;;;;;;;;;;5092434;28;20479;-93
2021/09/22 00:21:39;;;;;;;0.10;0.10;;;;;;;;;;5058975;28;20526;-92
2021/09/22 00:24:05;;;;;;;0.10;0.10;;;;;;;;;;5075798;28;20036;-92
2021/09/22 00:26:31;;;;;;;0.10;0.10;;;;;;;;;;5075275;28;20067;-90
2021/09/22 00:28:57;;;;;;;0.10;0.10;;;;;;;;;;5074811;28;20115;-91
2021/09/22 00:31:23;;;;;;;0.10;0.10;;;;;;;;;;5074961;28;20047;-90
2021/09/22 00:33:49;;;;;;;0.10;0.10;;;;;;;;;;5075110;28;20044;-92
2021/09/22 00:36:15;;;;;;;0.10;0.10;;;;;;;;;;5075120;28;20048;-91
2021/09/22 00:38:41;;;;;;;0.10;0.10;;;;;;;;;;5075039;28;20047;-92
2021/09/22 00:41:07;;;;;;;0.10;0.10;;;;;;;;;;5075389;28;20043;-92
2021/09/22 00:43:33;;;;;;;0.10;0.10;;;;;;;;;;5058865;28;20086;-93
2021/09/22 00:46:04;;;;;;;0.10;0.10;;;;;;;;;;5075741;28;20146;-92
2021/09/22 00:48:31;;;;;;;0.10;0.10;;;;;;;;;;5059136;28;20055;-92
2021/09/22 00:50:57;;;;;;;0.10;0.10;;;;;;;;;;5058636;28;20036;-93
2021/09/22 00:53:23;;;;;;;0.10;0.10;;;;;;;;;;5075200;28;20371;-92
2021/09/22 00:55:51;;;;;;;0.10;0.10;;;;;;;;;;5075055;28;20043;-93
2021/09/22 00:58:17;;;;;;;0.10;0.10;;;;;;;;;;5058446;28;20054;-93
2021/09/22 01:00:42;;;;;;;0.10;0.10;;;;;;;;;;5075294;28;20126;-93
2021/09/22 01:03:08;;;;;;;0.10;0.10;;;;;;;;;;5058435;28;20086;-91
2021/09/22 01:05:34;;;;;;;0.10;0.10;;;;;;;;;;5074997;28;20126;-91
2021/09/22 01:08:01;;;;;;;0.10;0.10;;;;;;;;;;5074996;28;20121;-89
2021/09/22 01:10:26;;;;;;;0.10;0.10;;;;;;;;;;5058422;28;20040;-90
2021/09/22 01:12:52;;;;;;;0.10;0.10;;;;;;;;;;5058800;28;20043;-90
2021/09/22 01:15:45;;;;;;;0.10;0.10;;;;;;;;;;5075041;28;20036;-90
2021/09/22 01:18:22;;;;;;;0.20;0.13;;;;;;;;;;5070176;28;20063;-90
2021/09/22 01:20:49;;;;;;;0.10;0.10;;;;;;;;;;5058752;28;20040;-90
2021/09/22 01:23:15;;;;;;;0.10;0.10;;;;;;;;;;5074840;28;20039;-91
2021/09/22 01:25:42;;;;;;;0.10;0.10;;;;;;;;;;5075080;28;20051;-90
2021/09/22 01:28:08;;;;;;;0.10;0.10;;;;;;;;;;5074874;28;20044;-90
2021/09/22 01:30:34;;;;;;;0.10;0.10;;;;;;;;;;5057908;28;20127;-90
2021/09/22 01:33:04;;;;;;;0.10;0.10;;;;;;;;;;5058000;28;20204;-90
2021/09/22 01:35:34;;;;;;;0.10;0.10;;;;;;;;;;5057700;28;20066;-90
2021/09/22 01:38:00;;;;;;;0.10;0.10;;;;;;;;;;5091271;28;20446;-91
2021/09/22 01:40:26;;;;;;;0.20;0.20;;;;;;;;;;5058115;28;20089;-90
2021/09/22 01:42:52;;;;;;;0.10;0.10;;;;;;;;;;5057907;28;20440;-92
2021/09/22 01:45:18;;;;;;;0.10;0.10;;;;;;;;;;5075484;28;20089;-90
2021/09/22 01:47:44;;;;;;;0.10;0.10;;;;;;;;;;5074702;28;20416;-91
2021/09/22 01:50:12;;;;;;;0.10;0.10;;;;;;;;;;5058244;28;20317;-90
2021/09/22 01:52:38;;;;;;;0.10;0.10;;;;;;;;;;5074959;28;20095;-90
2021/09/22 01:55:04;;;;;;;0.10;0.10;;;;;;;;;;5074632;28;20493;-89
2021/09/22 01:57:30;;;;;;;0.10;0.10;;;;;;;;;;5074331;28;20171;-90
2021/09/22 01:59:56;;;;;;;0.10;0.10;;;;;;;;;;5074814;28;20147;-90
2021/09/22 02:02:22;;;;;;;0.10;0.10;;;;;;;;;;5074602;28;20040;-90
2021/09/22 02:04:48;;;;;;;0.10;0.10;;;;;;;;;;5090974;28;20453;-90
2021/09/22 02:07:14;;;;;;;0.10;0.10;;;;;;;;;;5057514;28;20047;-90
2021/09/22 02:09:40;;;;;;;0.10;0.10;;;;;;;;;;5074177;28;20049;-90
2021/09/22 02:12:06;;;;;;;0.20;0.20;;;;;;;;;;5077654;28;20044;-90
2021/09/22 02:14:32;;;;;;;0.10;0.10;;;;;;;;;;5077971;28;20040;-90
2021/09/22 02:16:58;;;;;;;0.10;0.10;;;;;;;;;;5094710;28;20089;-89
2021/09/22 02:19:24;;;;;;;0.10;0.10;;;;;;;;;;5077982;28;20043;-89
2021/09/22 02:21:50;;;;;;;0.10;0.10;;;;;;;;;;5077909;28;20035;-89
2021/09/22 02:24:16;;;;;;;0.10;0.10;;;;;;;;;;5077751;28;20036;-89
2021/09/22 02:26:42;;;;;;;0.10;0.10;;;;;;;;;;5060977;28;20047;-91
2021/09/22 02:29:08;;;;;;;0.10;0.10;;;;;;;;;;5094382;28;20040;-89
2021/09/22 02:31:34;;;;;;;0.10;0.10;;;;;;;;;;5077772;28;20047;-90
2021/09/22 02:34:00;;;;;;;0.10;0.10;;;;;;;;;;5077362;28;20224;-88
2021/09/22 02:36:26;;;;;;;0.10;0.10;;;;;;;;;;5094094;28;20076;-89
2021/09/22 02:38:52;;;;;;;0.10;0.10;;;;;;;;;;5094080;28;20129;-89
2021/09/22 02:41:18;;;;;;;0.10;0.10;;;;;;;;;;5060395;28;20401;-89
2021/09/22 02:43:44;;;;;;;0.10;0.10;;;;;;;;;;5077329;28;20036;-89
2021/09/22 02:46:10;;;;;;;0.10;0.10;;;;;;;;;;5060820;28;20042;-88
2021/09/22 02:48:36;;;;;;;0.10;0.10;;;;;;;;;;5077183;28;20123;-89
2021/09/22 02:51:03;;;;;;;0.10;0.10;;;;;;;;;;5077431;28;20044;-89
2021/09/22 02:53:29;;;;;;;0.20;0.20;;;;;;;;;;5094049;28;20051;-89
2021/09/22 02:55:55;;;;;;;0.10;0.10;;;;;;;;;;5076767;28;20035;-89
2021/09/22 02:58:21;;;;;;;0.10;0.10;;;;;;;;;;5077029;28;20457;-89
2021/09/22 03:00:48;;;;;;;0.10;0.10;;;;;;;;;;5077346;28;20116;-89
2021/09/22 03:03:14;;;;;;;0.10;0.10;;;;;;;;;;5060860;28;20069;-89
2021/09/22 03:05:40;;;;;;;0.10;0.10;;;;;;;;;;5060359;28;20367;-89
2021/09/22 03:08:06;;;;;;;0.10;0.10;;;;;;;;;;5076963;28;20039;-89
2021/09/22 03:10:32;;;;;;;0.10;0.10;;;;;;;;;;5077079;28;20379;-90
2021/09/22 03:12:58;;;;;;;0.10;0.10;;;;;;;;;;5093718;28;20048;-89
2021/09/22 03:15:24;;;;;;;0.10;0.10;;;;;;;;;;5076513;28;20035;-89
2021/09/22 03:17:50;;;;;;;0.17;0.17;;;;;;;;;;5076633;28;20062;-89
2021/09/22 03:20:16;;;;;;;0.10;0.10;;;;;;;;;;5093773;28;20104;-90
2021/09/22 03:22:42;;;;;;;0.10;0.10;;;;;;;;;;5077129;28;20475;-90
2021/09/22 03:25:08;;;;;;;0.10;0.10;;;;;;;;;;5077034;28;20036;-91
2021/09/22 03:27:34;;;;;;;0.10;0.10;;;;;;;;;;5060612;28;20052;-91
2021/09/22 03:30:00;;;;;;;0.20;0.20;;;;;;;;;;5060776;28;20605;-91
2021/09/22 03:32:26;;;;;;;0.10;0.10;;;;;;;;;;5077161;28;20119;-91
2021/09/22 03:34:52;;;;;;;0.10;0.10;;;;;;;;;;5093735;28;20570;-91
2021/09/22 03:37:18;;;;;;;0.10;0.10;;;;;;;;;;5076872;28;20352;-92
2021/09/22 03:39:44;;;;;;;0.10;0.10;;;;;;;;;;5077128;28;20044;-92
2021/09/22 03:42:10;;;;;;;0.10;0.10;;;;;;;;;;5093749;28;20089;-91
2021/09/22 03:44:36;;;;;;;0.10;0.10;;;;;;;;;;5060053;28;20123;-90
2021/09/22 03:47:02;;;;;;;0.10;0.10;;;;;;;;;;5077005;28;20177;-90
2021/09/22 03:49:28;;;;;;;0.10;0.10;;;;;;;;;;5076729;28;20089;-91
2021/09/22 03:51:54;;;;;;;0.10;0.10;;;;;;;;;;5076485;28;20437;-90
2021/09/22 03:54:20;;;;;;;0.10;0.10;;;;;;;;;;5076295;28;20036;-90
2021/09/22 03:56:46;;;;;;;0.10;0.10;;;;;;;;;;5076458;28;20063;-90
2021/09/22 03:59:12;;;;;;;0.20;0.20;;;;;;;;;;5076506;28;20040;-90
2021/09/22 04:01:38;;;;;;;0.20;0.20;;;;;;;;;;5076385;28;20036;-91
2021/09/22 04:04:04;;;;;;;0.10;0.10;;;;;;;;;;5059776;28;20052;-89
2021/09/22 04:06:30;;;;;;;0.10;0.10;;;;;;;;;;5075859;28;20036;-89
2021/09/22 04:08:56;;;;;;;0.10;0.10;;;;;;;;;;5075538;28;20423;-90
2021/09/22 04:11:22;;;;;;;0.10;0.10;;;;;;;;;;5075667;28;20047;-89
2021/09/22 04:13:48;;;;;;;0.10;0.10;;;;;;;;;;5059212;28;20058;-91
2021/09/22 04:16:14;;;;;;;0.10;0.10;;;;;;;;;;5076151;28;20039;-90
2021/09/22 04:18:40;;;;;;;0.10;0.10;;;;;;;;;;5059057;28;20079;-89
2021/09/22 04:21:06;;;;;;;0.10;0.10;;;;;;;;;;5059470;28;20104;-89
2021/09/22 04:23:32;;;;;;;0.10;0.10;;;;;;;;;;5058813;28;20067;-90
2021/09/22 04:25:58;;;;;;;0.10;0.10;;;;;;;;;;5075412;28;20270;-90
2021/09/22 04:28:24;;;;;;;0.10;0.10;;;;;;;;;;5058705;28;20427;-90
2021/09/22 04:30:50;;;;;;;0.10;0.10;;;;;;;;;;5059207;28;20040;-89
2021/09/22 04:33:16;;;;;;;0.10;0.10;;;;;;;;;;5074906;28;20138;-89
2021/09/22 04:35:42;;;;;;;0.10;0.10;;;;;;;;;;5058564;28;20071;-90
2021/09/22 04:38:08;;;;;;;0.10;0.10;;;;;;;;;;5075096;28;20052;-89
2021/09/22 04:40:34;;;;;;;0.10;0.10;;;;;;;;;;5075846;28;20048;-90
2021/09/22 04:43:00;;;;;;;0.10;0.10;;;;;;;;;;5092256;28;20138;-92
2021/09/22 04:45:26;;;;;;;0.10;0.10;;;;;;;;;;5075487;28;20052;-91
2021/09/22 04:47:52;;;;;;;0.10;0.10;;;;;;;;;;5058919;28;20036;-91
2021/09/22 04:50:19;;;;;;;0.10;0.10;;;;;;;;;;5058517;28;20047;-91
2021/09/22 04:52:45;;;;;;;0.10;0.10;;;;;;;;;;5075184;28;20495;-91
2021/09/22 04:55:11;;;;;;;0.10;0.10;;;;;;;;;;5091949;28;20047;-90
2021/09/22 04:57:39;;;;;;;0.10;0.10;;;;;;;;;;5075443;28;20470;-91
2021/09/22 05:00:05;;;;;;;0.10;0.10;;;;;;;;;;5092352;28;20044;-90
2021/09/22 05:02:31;;;;;;;0.10;0.10;;;;;;;;;;5075354;28;20040;-90
2021/09/22 05:04:57;;;;;;;0.10;0.10;;;;;;;;;;5091714;28;20438;-90
2021/09/22 05:07:23;;;;;;;0.10;0.10;;;;;;;;;;5074785;28;20035;-91
2021/09/22 05:09:49;;;;;;;0.10;0.10;;;;;;;;;;5091887;28;20459;-90
2021/09/22 05:12:15;;;;;;;0.10;0.10;;;;;;;;;;5075053;28;20093;-91
2021/09/22 05:14:41;;;;;;;0.10;0.10;;;;;;;;;;5091497;28;20051;-89
2021/09/22 05:17:07;;;;;;;0.43;0.30;;;;;;;;;;5057906;28;20469;-89
2021/09/22 05:19:32;;;;;;;0.10;0.10;;;;;;;;;;5074545;28;20043;-89
2021/09/22 05:21:59;;;;;;;0.20;0.20;;;;;;;;;;5058397;28;20181;-90
2021/09/22 05:24:25;;;;;;;0.10;0.10;;;;;;;;;;5057812;28;20491;-90
2021/09/22 05:26:51;;;;;;;0.20;0.20;;;;;;;;;;5058476;28;20042;-90
2021/09/22 05:29:16;;;;;;;0.10;0.10;;;;;;;;;;5057747;28;20040;-90
2021/09/22 05:31:43;;;;;;;0.17;0.17;;;;;;;;;;5057565;28;20043;-90
2021/09/22 05:34:09;;;;;;;0.10;0.10;;;;;;;;;;5058474;28;20091;-91
2021/09/22 05:36:35;;;;;;;0.10;0.10;;;;;;;;;;5075206;28;20078;-91
2021/09/22 05:39:01;;;;;;;0.10;0.10;;;;;;;;;;5075066;28;20040;-91
2021/09/22 05:41:27;;;;;;;0.13;0.13;;;;;;;;;;5058809;28;20090;-90
2021/09/22 05:43:53;;;;;;;0.20;0.20;;;;;;;;;;5075854;28;20111;-90
2021/09/22 05:46:19;;;;;;;0.10;0.10;;;;;;;;;;5078416;28;20095;-90
2021/09/22 05:48:45;;;;;;;0.52;0.52;;;;;;;;;;5078911;28;20084;-90
2021/09/22 05:51:11;;;;;;;0.10;0.10;;;;;;;;;;5096228;28;20180;-90
2021/09/22 05:53:40;;;;;;;0.10;0.10;;;;;;;;;;5078478;28;20468;-90
2021/09/22 05:56:06;;;;;;;0.10;0.10;;;;;;;;;;5062565;28;20398;-91
2021/09/22 05:58:32;;;;;;;0.10;0.10;;;;;;;;;;5078258;28;20126;-91
2021/09/22 06:00:59;;;;;;;0.10;0.10;;;;;;;;;;5062029;28;20118;-91
2021/09/22 06:03:25;;;;;;;0.10;0.10;;;;;;;;;;5078701;28;20044;-91
2021/09/22 06:05:51;;;;;;;0.17;0.17;;;;;;;;;;5078263;28;20129;-92
2021/09/22 06:08:17;;;;;;;0.10;0.10;;;;;;;;;;5078272;28;20043;-93
2021/09/22 06:10:45;;;;;;;0.10;0.10;;;;;;;;;;5061811;28;20047;-90
2021/09/22 06:13:11;;;;;;;0.10;0.10;;;;;;;;;;5061504;28;20040;-87
2021/09/22 06:15:37;;;;;;;0.10;0.10;;;;;;;;;;5076155;28;20039;-87
2021/09/22 06:18:03;;;;;;;0.10;0.10;;;;;;;;;;5090860;28;20031;-87
2021/09/22 06:20:29;;;;;;;0.10;0.10;;;;;;;;;;5080571;28;20040;-87
2021/09/22 06:22:55;;;;;;;0.30;0.30;;;;;;;;;;5114731;28;20039;-88
2021/09/22 06:25:22;;;;;;;0.10;0.10;;;;;;;;;;5097387;28;20317;-88
2021/09/22 06:27:48;;;;;;;0.10;0.10;;;;;;;;;;5097768;28;20053;-87
2021/09/22 06:30:14;;;;;;;0.10;0.10;;;;;;;;;;5097910;28;20130;-87
2021/09/22 06:32:40;;;;;;;0.10;0.10;;;;;;;;;;5114289;28;20101;-87
2021/09/22 06:35:07;;;;;;;0.10;0.10;;;;;;;;;;5113870;28;20063;-87
2021/09/22 06:37:33;;;;;;;0.10;0.10;;;;;;;;;;5080413;28;20127;-88
2021/09/22 06:39:58;;;;;;;0.10;0.10;;;;;;;;;;5097454;28;20063;-89
2021/09/22 06:42:24;;;;;;;0.10;0.10;;;;;;;;;;5080510;28;20487;-87
2021/09/22 06:44:50;;;;;;;0.10;0.10;;;;;;;;;;5112767;28;20406;-88
2021/09/22 06:47:16;;;;;;;0.15;0.15;;;;;;;;;;5097238;28;20126;-88
2021/09/22 06:49:42;;;;;;;0.10;0.10;;;;;;;;;;5097415;28;20037;-89
2021/09/22 06:52:08;;;;;;;0.10;0.10;;;;;;;;;;5114162;28;20111;-88
2021/09/22 06:54:35;;;;;;;0.10;0.10;;;;;;;;;;5080025;28;20087;-87
2021/09/22 06:57:01;;;;;;;0.10;0.10;;;;;;;;;;5113430;28;20495;-86
2021/09/22 06:59:27;;;;;;;0.10;0.10;;;;;;;;;;5114016;28;20048;-91
2021/09/22 07:01:53;;;;;;;0.20;0.20;;;;;;;;;;5080257;28;20040;-90
2021/09/22 07:04:19;;;;;;;0.10;0.10;;;;;;;;;;5113996;28;20062;-90
2021/09/22 07:06:45;;;;;;;0.20;0.20;;;;;;;;;;5097037;28;20542;-90
2021/09/22 07:09:11;;;;;;;0.10;0.10;;;;;;;;;;5096912;28;20505;-87
2021/09/22 07:11:37;;;;;;;0.10;0.10;;;;;;;;;;5114041;28;20043;-89
2021/09/22 07:14:03;;;;;;;0.10;0.10;;;;;;;;;;5080305;28;20040;-87
2021/09/22 07:16:29;;;;;;;0.20;0.20;;;;;;;;;;5113492;28;20123;-88
2021/09/22 07:18:56;;;;;;;0.10;0.10;;;;;;;;;;5096531;28;20044;-86
2021/09/22 07:21:22;;;;;;;0.10;0.10;;;;;;;;;;5080271;28;20039;-88
2021/09/22 07:23:48;;;;;;;0.20;0.20;;;;;;;;;;5096804;28;20035;-88
2021/09/22 07:26:14;;;;;;;0.10;0.10;;;;;;;;;;5113451;28;20479;-88
2021/09/22 07:28:40;;;;;;;0.20;0.20;;;;;;;;;;5096162;28;20040;-86
2021/09/22 07:31:06;;;;;;;0.10;0.10;;;;;;;;;;5113471;28;20187;-86
2021/09/22 07:33:32;;;;;;;0.10;0.10;;;;;;;;;;5096053;28;20051;-87
2021/09/22 07:35:58;;;;;;;0.10;0.10;;;;;;;;;;5095809;28;20051;-89
2021/09/22 07:38:26;;;;;;;0.10;0.10;;;;;;;;;;5112802;28;20043;-88
2021/09/22 07:40:52;;;;;;;0.10;0.10;;;;;;;;;;5079570;28;20417;-88
2021/09/22 07:43:18;;;;;;;0.10;0.10;;;;;;;;;;5095738;28;20084;-88
2021/09/22 07:45:44;;;;;;;0.10;0.10;;;;;;;;;;5095951;28;20032;-90
2021/09/22 07:48:10;;;;;;;0.10;0.10;;;;;;;;;;5079550;28;20044;-93
2021/09/22 07:50:36;;;;;;;0.20;0.20;;;;;;;;;;5095758;28;20040;-86
2021/09/22 07:53:02;;;;;;;0.10;0.10;;;;;;;;;;5095449;28;20451;-87
2021/09/22 07:55:28;;;;;;;0.38;0.20;;;;;;;;;;5112200;28;20040;-86
2021/09/22 07:57:55;;;;;;;0.10;0.10;;;;;;;;;;5095468;28;20376;-86
2021/09/22 08:00:21;;;;;;;0.10;0.10;;;;;;;;;;5112600;28;20070;-84
2021/09/22 08:02:47;;;;;;;0.10;0.10;;;;;;;;;;5095640;28;20093;-85
2021/09/22 08:05:13;;;;;;;0.10;0.10;;;;;;;;;;5078920;28;20031;-87
2021/09/22 08:07:39;;;;;;;0.10;0.10;;;;;;;;;;5111591;28;20043;-87
2021/09/22 08:10:05;;;;;;;0.10;0.10;;;;;;;;;;5095525;28;20047;-89
2021/09/22 08:12:31;;;;;;;0.10;0.10;;;;;;;;;;5079189;28;20099;-94
2021/09/22 08:14:57;;;;;;;0.20;0.20;;;;;;;;;;5078568;28;20075;-87
2021/09/22 08:17:23;;;;;;;0.10;0.10;;;;;;;;;;5095820;28;20124;-92
2021/09/22 08:19:49;;;;;;;0.10;0.10;;;;;;;;;;5096123;28;20035;-92
2021/09/22 08:22:15;;;;;;;0.20;0.20;;;;;;;;;;5095345;28;20077;-92
2021/09/22 08:24:41;;;;;;;0.10;0.10;;;;;;;;;;5078571;28;20505;-92
2021/09/22 08:27:07;;;;;;;0.10;0.10;;;;;;;;;;5078603;28;20032;-90
2021/09/22 08:29:33;;;;;;;0.10;0.10;;;;;;;;;;5112315;28;20478;-88
2021/09/22 08:31:59;;;;;;;0.20;0.20;;;;;;;;;;5095260;28;20340;-92
2021/09/22 08:34:25;;;;;;;0.30;0.30;;;;;;;;;;5112024;28;20069;-91
2021/09/22 08:36:51;;;;;;;0.10;0.10;;;;;;;;;;5078255;28;20041;-89
2021/09/22 08:39:17;;;;;;;0.20;0.20;;;;;;;;;;5095430;28;20050;-90
2021/09/22 08:41:44;;;;;;;0.63;0.63;;;;;;;;;;5095173;28;20092;-88
2021/09/22 08:44:10;;;;;;;0.10;0.10;;;;;;;;;;5095346;28;20039;-92
2021/09/22 08:46:36;;;;;;;0.10;0.10;;;;;;;;;;5078343;28;20032;-90
2021/09/22 08:49:03;;;;;;;0.10;0.10;;;;;;;;;;5095598;28;20118;-94
2021/09/22 08:51:29;;;;;;;0.20;0.20;;;;;;;;;;5095314;28;20124;-91
2021/09/22 08:53:55;;;;;;;0.20;0.20;;;;;;;;;;5112261;28;20078;-92
2021/09/22 08:56:21;;;;;;;0.10;0.10;;;;;;;;;;5078161;28;20424;-89
2021/09/22 08:58:46;;;;;;;0.10;0.10;;;;;;;;;;5094548;28;20048;-88
2021/09/22 09:01:13;;;;;;;0.10;0.10;;;;;;;;;;5078024;28;20092;-86
2021/09/22 09:03:40;;;;;;;0.20;0.20;;;;;;;;;;5094455;28;20047;-89
2021/09/22 09:06:20;;;;;;;0.10;0.10;;;;;;;;;;5094708;28;20343;-88
2021/09/22 09:08:46;;;;;;;0.10;0.10;;;;;;;;;;5094584;28;20100;-90
2021/09/22 09:11:12;;;;;;;0.10;0.10;;;;;;;;;;5111557;28;20036;-88
2021/09/22 09:13:45;;;;;;;0.10;0.10;;;;;;;;;;5094676;28;20039;-89
2021/09/22 09:16:22;;;;;;;0.20;0.20;;;;;;;;;;5077853;28;20054;-87
2021/09/22 09:18:55;;;;;;;0.22;0.22;;;;;;;;;;5078298;28;20054;-87
2021/09/22 09:21:21;;;;;;;0.10;0.10;;;;;;;;;;5094387;28;20044;-88
2021/09/22 09:23:57;;;;;;;0.10;0.10;;;;;;;;;;5094277;28;20036;-87
2021/09/22 09:26:24;;;;;;;0.10;0.10;;;;;;;;;;5111437;28;20398;-87
2021/09/22 09:28:51;;;;;;;0.68;0.68;;;;;;;;;;5094436;28;20459;-87
2021/09/22 09:31:17;;;;;;;0.32;0.32;;;;;;;;;;5094198;28;20040;-87
2021/09/22 09:33:44;;;;;;;0.47;0.47;;;;;;;;;;5077210;28;20040;-88
2021/09/22 09:36:13;;;;;;;0.40;0.40;;;;;;;;;;5093824;28;20427;-85
2021/09/22 09:38:39;;;;;;;0.10;0.10;;;;;;;;;;5110951;28;20211;-87
2021/09/22 09:41:05;;;;;;;0.10;0.10;;;;;;;;;;5110962;28;20138;-87
2021/09/22 09:43:31;;;;;;;0.10;0.10;;;;;;;;;;5093959;28;20476;-87
2021/09/22 09:45:57;;;;;;;0.10;0.10;;;;;;;;;;5111381;28;20130;-87
2021/09/22 09:48:23;;;;;;;0.10;0.10;;;;;;;;;;5094015;28;20039;-87
2021/09/22 09:50:49;;;;;;;0.10;0.10;;;;;;;;;;5094152;28;20059;-87
2021/09/22 09:53:44;;;;;;;0.43;0.40;;;;;;;;;;5110822;28;20286;-88
2021/09/22 09:56:17;;;;;;;0.10;0.10;;;;;;;;;;5098709;28;20052;-91
2021/09/22 09:58:44;;;;;;;0.10;0.10;;;;;;;;;;5094635;28;20234;-91
2021/09/22 10:01:11;;;;;;;0.30;0.30;;;;;;;;;;5077430;28;20044;-89
2021/09/22 10:03:37;;;;;;;0.10;0.10;;;;;;;;;;5094953;28;20043;-89
2021/09/22 10:06:03;;;;;;;0.10;0.10;;;;;;;;;;5078268;28;20471;-91
2021/09/22 10:08:30;;;;;;;0.10;0.10;;;;;;;;;;5095444;28;20048;-90
2021/09/22 10:10:56;;;;;;;0.10;0.10;;;;;;;;;;5077588;28;20371;-88
2021/09/22 10:13:22;;;;;;;0.10;0.10;;;;;;;;;;5111136;28;20382;-91
2021/09/22 10:15:49;;;;;;;0.20;0.20;;;;;;;;;;5091559;28;20103;-90
2021/09/22 10:18:15;;;;;;;0.10;0.10;;;;;;;;;;5094545;28;20039;-89
2021/09/22 10:20:44;;;;;;;0.10;0.10;;;;;;;;;;5111372;28;20036;-89
2021/09/22 10:23:11;;;;;;;0.13;0.13;;;;;;;;;;5094333;28;20042;-90
2021/09/22 10:25:37;;;;;;;0.10;0.10;;;;;;;;;;5094629;28;20452;-91
2021/09/22 10:28:03;;;;;;;0.22;0.22;;;;;;;;;;5095912;28;20044;-89
2021/09/22 10:30:35;;;;;;;0.10;0.10;;;;;;;;;;5077557;28;20475;-92
2021/09/22 10:33:01;;;;;;;0.10;0.10;;;;;;;;;;5114659;28;20437;-91
2021/09/22 10:35:27;;;;;;;0.10;0.10;;;;;;;;;;5081102;28;20058;-91
2021/09/22 10:37:54;;;;;;;0.20;0.20;;;;;;;;;;5098870;28;20071;-91
2021/09/22 10:40:21;;;;;;;0.20;0.20;;;;;;;;;;5087241;28;20040;-89
2021/09/22 10:42:47;;;;;;;0.10;0.10;;;;;;;;;;5103726;28;20071;-90
2021/09/22 10:45:18;;;;;;;0.20;0.20;;;;;;;;;;5106189;28;20054;-90
2021/09/22 10:47:44;;;;;;;0.10;0.10;;;;;;;;;;5103771;28;20538;-88
2021/09/22 10:50:12;;;;;;;0.20;0.20;;;;;;;;;;5114401;28;20035;-91
2021/09/22 10:52:39;;;;;;;4.60;0.35;;;;;;;;;;5119343;28;20065;-88
2021/09/22 10:55:11;;;;;;;0.28;0.28;;;;;;;;;;5102256;28;20047;-89
2021/09/22 10:57:40;;;;;;;0.10;0.10;;;;;;;;;;5112032;28;20040;-88
2021/09/22 11:00:24;;;;;;;0.20;0.20;;;;;;;;;;5097013;28;20514;-89
2021/09/22 11:02:54;;;;;;;0.10;0.10;;;;;;;;;;5113802;28;20054;-86
2021/09/22 11:05:26;;;;;;;0.20;0.20;;;;;;;;;;5096861;28;20075;-86
2021/09/22 11:07:59;;;;;;;0.38;0.38;;;;;;;;;;5115281;27;20079;-92
2021/09/22 11:10:42;;;;;;;0.10;0.10;;;;;;;;;;5098011;28;20043;-92
2021/09/22 11:13:23;;;;;;;0.10;0.10;;;;;;;;;;5081276;28;20074;-93
2021/09/22 11:15:49;;;;;;;0.22;0.22;;;;;;;;;;5114590;28;20096;-93
2021/09/22 11:18:15;;;;;;;0.28;0.28;;;;;;;;;;5114150;28;20488;-90
2021/09/22 11:20:41;;;;;;;0.10;0.10;;;;;;;;;;5096906;28;20088;-91
2021/09/22 11:23:08;;;;;;;0.10;0.10;;;;;;;;;;5079679;28;20545;-89
2021/09/22 11:25:34;;;;;;;0.20;0.20;;;;;;;;;;5096385;28;20161;-90
2021/09/22 11:28:06;;;;;;;0.20;0.20;;;;;;;;;;5096899;28;20122;-88
2021/09/22 11:30:32;;;;;;;0.20;0.20;;;;;;;;;;5096719;28;20463;-90
2021/09/22 11:32:58;;;;;;;0.20;0.20;;;;;;;;;;5080002;28;20043;-90
2021/09/22 11:35:24;;;;;;;0.40;0.40;;;;;;;;;;5079893;28;20593;-91
2021/09/22 11:37:56;;;;;;;0.10;0.10;;;;;;;;;;5097654;28;20050;-93
2021/09/22 11:40:22;;;;;;;0.20;0.20;;;;;;;;;;5097908;28;20047;-94
2021/09/22 11:43:07;;;;;;;0.10;0.10;;;;;;;;;;5114366;28;20040;-92
2021/09/22 11:45:34;;;;;;;0.40;0.25;;;;;;;;;;5114434;28;20043;-93
2021/09/22 11:48:00;;;;;;;0.30;0.30;;;;;;;;;;5080219;28;20126;-93
2021/09/22 11:50:30;;;;;;;0.20;0.20;;;;;;;;;;5080450;28;20075;-91
2021/09/22 11:52:56;;;;;;;0.20;0.20;;;;;;;;;;5096913;28;20378;-90
2021/09/22 11:55:22;;;;;;;0.28;0.28;;;;;;;;;;5096668;28;20385;-94
2021/09/22 11:57:49;;;;;;;0.20;0.20;;;;;;;;;;5096543;28;20104;-93
2021/09/22 12:00:15;;;;;;;0.10;0.10;;;;;;;;;;5080027;28;20066;-91
2021/09/22 12:02:41;;;;;;;0.10;0.10;;;;;;;;;;5079362;28;20043;-93
2021/09/22 12:05:08;;;;;;;0.10;0.10;;;;;;;;;;5096248;28;20397;-92
2021/09/22 12:07:34;;;;;;;0.10;0.10;;;;;;;;;;5096416;28;20058;-93
2021/09/22 12:10:01;;;;;;;0.10;0.10;;;;;;;;;;5079452;28;20101;-93
2021/09/22 12:12:27;;;;;;;0.20;0.20;;;;;;;;;;5096705;28;20486;-92
2021/09/22 12:14:53;;;;;;;0.20;0.20;;;;;;;;;;5079121;28;20036;-93
2021/09/22 12:17:20;;;;;;;0.20;0.20;;;;;;;;;;5079090;28;20047;-93
2021/09/22 12:19:46;;;;;;;0.10;0.10;;;;;;;;;;5079508;28;20372;-92
2021/09/22 12:22:13;;;;;;;0.10;0.10;;;;;;;;;;5079378;28;20032;-92
2021/09/22 12:24:39;;;;;;;0.20;0.20;;;;;;;;;;5079124;28;20035;-92
2021/09/22 12:27:10;;;;;;;0.30;0.30;;;;;;;;;;5096420;28;20513;-92
2021/09/22 12:29:36;;;;;;;0.10;0.10;;;;;;;;;;5095951;28;20044;-92
2021/09/22 12:32:06;;;;;;;0.20;0.20;;;;;;;;;;5096386;28;20050;-93
2021/09/22 12:34:39;;;;;;;0.10;0.10;;;;;;;;;;5095646;28;20097;-92
2021/09/22 12:37:04;;;;;;;;;;;;;;;;;;5096389;28;20040;-93
2021/09/22 12:39:30;;;;;;;0.20;0.20;;;;;;;;;;5113229;28;20428;-92
2021/09/22 12:41:59;;;;;;;0.13;0.13;;;;;;;;;;5096088;28;20438;-93
2021/09/22 12:44:24;;;;;;;0.20;0.20;;;;;;;;;;5079052;28;20047;-93
2021/09/22 12:46:50;;;;;;;0.20;0.20;;;;;;;;;;5079044;28;20043;-92
2021/09/22 12:49:19;;;;;;;0.10;0.10;;;;;;;;;;5095670;28;20431;-92
2021/09/22 12:51:45;;;;;;;0.20;0.20;;;;;;;;;;5078857;28;20040;-91
2021/09/22 12:54:12;;;;;;;0.20;0.20;;;;;;;;;;5078184;28;20046;-92
2021/09/22 12:56:38;;;;;;;0.20;0.20;;;;;;;;;;5095726;28;20040;-93
2021/09/22 12:59:28;;;;;;;0.20;0.20;;;;;;;;;;5095169;28;20188;-89
2021/09/22 13:01:54;;;;;;;0.20;0.20;;;;;;;;;;5083004;28;20171;-92
2021/09/22 13:04:24;;;;;;;0.28;0.28;;;;;;;;;;5078430;28;20119;-92
2021/09/22 13:06:51;;;;;;;0.20;0.20;;;;;;;;;;5095372;28;20031;-93
2021/09/22 13:09:17;;;;;;;0.17;0.17;;;;;;;;;;5095306;28;20116;-92
2021/09/22 13:11:43;;;;;;;0.10;0.10;;;;;;;;;;5078275;28;20479;-92
2021/09/22 13:14:10;;;;;;;0.10;0.10;;;;;;;;;;5095090;28;20043;-91
2021/09/22 13:16:40;;;;;;;0.20;0.20;;;;;;;;;;5078541;28;20043;-92
2021/09/22 13:19:12;;;;;;;0.13;0.13;;;;;;;;;;5094920;28;20045;-91
2021/09/22 13:21:41;;;;;;;0.10;0.10;;;;;;;;;;5076017;28;20475;-91
2021/09/22 13:24:08;;;;;;;0.15;0.15;;;;;;;;;;5092306;28;20067;-92
2021/09/22 13:26:34;;;;;;;0.10;0.10;;;;;;;;;;5059784;28;20122;-91
2021/09/22 13:29:03;;;;;;;0.10;0.10;;;;;;;;;;5058416;28;20047;-91
2021/09/22 13:31:30;;;;;;;0.10;0.10;;;;;;;;;;5075145;28;20096;-94
2021/09/22 13:33:56;;;;;;;0.30;0.30;;;;;;;;;;5075363;28;20044;-94
2021/09/22 13:36:24;;;;;;;0.20;0.20;;;;;;;;;;5075279;28;20471;-89
2021/09/22 13:38:50;;;;;;;0.20;0.20;;;;;;;;;;5075306;28;20044;-88
2021/09/22 13:41:16;;;;;;;0.20;0.20;;;;;;;;;;5077082;28;20050;-88
2021/09/22 13:43:42;;;;;;;0.20;0.20;;;;;;;;;;5093776;28;20031;-89
2021/09/22 13:46:08;;;;;;;0.10;0.10;;;;;;;;;;5089171;28;20047;-89
2021/09/22 13:48:34;;;;;;;0.20;0.20;;;;;;;;;;5073744;28;20036;-90
2021/09/22 13:51:00;;;;;;;0.10;0.10;;;;;;;;;;5056816;28;20046;-88
2021/09/22 13:53:26;;;;;;;0.15;0.15;;;;;;;;;;5073686;28;20040;-89
2021/09/22 13:55:52;;;;;;;0.20;0.20;;;;;;;;;;5073766;28;20097;-89
2021/09/22 13:58:18;;;;;;;0.40;0.40;;;;;;;;;;5090095;28;20130;-89
2021/09/22 14:00:44;;;;;;;0.10;0.10;;;;;;;;;;5073729;28;20039;-89
2021/09/22 14:03:11;;;;;;;0.20;0.20;;;;;;;;;;5057060;28;20168;-89
2021/09/22 14:05:37;;;;;;;0.10;0.10;;;;;;;;;;5057506;28;20032;-90
2021/09/22 14:08:04;;;;;;;0.10;0.10;;;;;;;;;;5078617;28;20040;-92
2021/09/22 14:10:30;;;;;;;0.10;0.10;;;;;;;;;;5095260;28;20051;-88
2021/09/22 14:13:00;;;;;;;0.38;0.38;;;;;;;;;;5094410;28;20483;-89
2021/09/22 14:15:27;;;;;;;0.25;0.25;;;;;;;;;;5094564;28;20208;-89
2021/09/22 14:17:53;;;;;;;0.10;0.10;;;;;;;;;;5077505;28;20044;-89
2021/09/22 14:20:19;;;;;;;0.10;0.10;;;;;;;;;;5061020;28;20383;-88
2021/09/22 14:22:45;;;;;;;0.10;0.10;;;;;;;;;;5077450;28;20038;-90
2021/09/22 14:25:11;;;;;;;0.20;0.20;;;;;;;;;;5077560;28;20039;-89
2021/09/22 14:27:37;;;;;;;0.10;0.10;;;;;;;;;;5077198;28;20047;-89
2021/09/22 14:30:03;;;;;;;0.10;0.10;;;;;;;;;;5094343;28;20032;-88
2021/09/22 14:32:29;;;;;;;0.17;0.17;;;;;;;;;;5087069;28;20032;-89
2021/09/22 14:34:55;;;;;;;0.30;0.30;;;;;;;;;;5114236;28;20055;-89
2021/09/22 14:37:21;;;;;;;0.10;0.10;;;;;;;;;;5097427;28;20054;-90
2021/09/22 14:39:47;;;;;;;0.10;0.10;;;;;;;;;;5097307;28;20115;-88
2021/09/22 14:42:13;;;;;;;0.10;0.10;;;;;;;;;;5114174;28;20088;-89